Tributaries of Vltava river

river Berounka - water gauge Beroun

Date and time (UTC) H (cm) Q (m3/s)
17. 9. 2019 09:20 75 7
17. 9. 2019 09:00 75 7
17. 9. 2019 08:00 74 7
17. 9. 2019 07:00 74 7
17. 9. 2019 06:00 75 7
17. 9. 2019 05:00 76 7
17. 9. 2019 04:00 78 8
17. 9. 2019 03:00 79 8
17. 9. 2019 02:00 81 9
17. 9. 2019 01:00 79 8
17. 9. 2019 00:00 81 9
16. 9. 2019 23:00 81 9
16. 9. 2019 22:00 80 9
16. 9. 2019 21:00 81 9

H - vodni stav, Q - discharge

river Sázava - water gauge Nespeky

Date and time (UTC) H (cm) Q (m3/s)
17. 9. 2019 09:20 42 3
17. 9. 2019 09:00 39 3
17. 9. 2019 08:00 39 3
17. 9. 2019 07:00 39 3
17. 9. 2019 06:00 40 3
17. 9. 2019 05:00 40 3
17. 9. 2019 04:00 40 3
17. 9. 2019 03:00 40 3
17. 9. 2019 02:00 40 3
17. 9. 2019 01:00 40 3
17. 9. 2019 00:00 39 3
16. 9. 2019 23:00 39 3
16. 9. 2019 22:00 42 3
16. 9. 2019 21:00 42 3

H - vodni stav, Q - discharge

river Otava - water gauge Písek

Date and time (UTC) H (cm) Q (m3/s)
17. 9. 2019 09:10 45 6
17. 9. 2019 09:00 43 5
17. 9. 2019 08:00 41 5
17. 9. 2019 07:00 42 5
17. 9. 2019 06:00 41 5
17. 9. 2019 05:00 41 5
17. 9. 2019 04:00 41 5
17. 9. 2019 03:00 41 5
17. 9. 2019 02:00 41 5
17. 9. 2019 01:00 42 5
17. 9. 2019 00:00 42 5
16. 9. 2019 23:00 42 5
16. 9. 2019 22:00 42 5
16. 9. 2019 21:00 41 5

H - vodni stav, Q - discharge

river Lužnice - water gauge Bechyně

Date and time (UTC) H (cm) Q (m3/s)
17. 9. 2019 09:20 83 3
17. 9. 2019 09:00 85 3
17. 9. 2019 08:00 88 4
17. 9. 2019 07:00 89 4
17. 9. 2019 06:00 78 2
17. 9. 2019 05:00 99 6
17. 9. 2019 04:00 90 4
17. 9. 2019 03:00 86 4
17. 9. 2019 02:00 79 2
17. 9. 2019 01:00 79 2
17. 9. 2019 00:00 80 3
16. 9. 2019 23:00 80 3
16. 9. 2019 22:00 84 3
16. 9. 2019 21:00 87 4

H - vodni stav, Q - discharge
Source data
Labe Basin Vltava Basin ČHMÚ